Darstellungsparameter: Aktuell verwendete Einstellungen:
Skalierung der Graphiken ... ?
xyx+y,   Skalierungsfaktor:      Skalierung: Modus: x, Faktor: 1
Darstellungszeitraum ... ?
Vom - - bis: - -   Zeitraum: 08.03.2014 - 08.03.2014
Min/Max/Avg-Anzeige ... ?
Zeige MMA aktuell
Zeige MMA Monat
Zeige MMA alles
Zeige --A aktuell
Zeige --A Monat
Zeige --A alles
Keine MMA-Anzeige
MMA:
Keine MMA-Graphiken
MMA-Basis: 08.03.2014 - 08.03.2014
Quicknavigation für Darstellung... ?
Tage:      1T, 2T, 3T, 5T -1T -2T -3T -5T +1T +2T +3T +5T
Wochen: 1W, 2W, 3W -1W -2W -3W +1W +2W +3W
Monate: 1M, 3M, 6M -1M -3M -6M +1M +3M +6M
Jahre:    1J, 3J, 5J, 10J -1J -3J -5J -10J +1J +3J +5J +10J
Nutze für die Darstellung ... ?
Originaldaten oder Mittelwerte auf ...
Stundenbasis Tagesbasis Wochenbasis
Monatsbasis Jahresbasis      Datenbasis: Original-Daten
Darstellen als:
Statistik (Auto) Statistik J:M      Darstellung:
Zur Graphik,    zurück zur Übersicht aller Sensoren.
 
Tabellarische Datenbersicht: ?
 
Sensor: Nr:Datum:Temp:Feuchte:Taupunkt:
Aussen-T/F 1 08-03-2014 00:00:00 5.2 C 89 % 3.54 C
2 08-03-2014 00:05:00 5.2 C 88 % 3.38 C
3 08-03-2014 00:10:00 5.3 C 87 % 3.32 C
4 08-03-2014 00:15:00 5.2 C 87 % 3.22 C
5 08-03-2014 00:20:00 5.1 C 87 % 3.12 C
6 08-03-2014 00:25:00 4.9 C 87 % 2.92 C
7 08-03-2014 00:30:00 4.7 C 87 % 2.73 C
8 08-03-2014 00:35:00 4.5 C 88 % 2.69 C
9 08-03-2014 00:40:00 4.4 C 89 % 2.75 C
10 08-03-2014 00:45:00 4.4 C 89 % 2.75 C
11 08-03-2014 00:50:00 4.4 C 89 % 2.75 C
12 08-03-2014 00:55:00 4.3 C 89 % 2.65 C
13 08-03-2014 01:00:00 4.3 C 90 % 2.81 C
14 08-03-2014 01:05:00 4.4 C 90 % 2.91 C
15 08-03-2014 01:10:00 4.4 C 90 % 2.91 C
16 08-03-2014 01:15:00 4.4 C 90 % 2.91 C
17 08-03-2014 01:20:00 4.5 C 89 % 2.85 C
18 08-03-2014 01:25:00 4.5 C 89 % 2.85 C
19 08-03-2014 01:30:00 4.4 C 90 % 2.91 C
20 08-03-2014 01:35:00 4.4 C 90 % 2.91 C
21 08-03-2014 01:40:00 4.4 C 90 % 2.91 C
22 08-03-2014 01:45:00 4.4 C 90 % 2.91 C
23 08-03-2014 01:50:00 4.4 C 89 % 2.75 C
24 08-03-2014 01:55:00 4.4 C 89 % 2.75 C
25 08-03-2014 02:00:00 4.4 C 89 % 2.75 C
Sensor: Nr:Datum:Temp:Feuchte:Taupunkt:
Aussen-T/F 26 08-03-2014 02:05:00 4.3 C 90 % 2.81 C
27 08-03-2014 02:10:00 4.3 C 90 % 2.81 C
28 08-03-2014 02:15:00 4.3 C 90 % 2.81 C
29 08-03-2014 02:20:00 4.3 C 90 % 2.81 C
30 08-03-2014 02:25:00 4.3 C 90 % 2.81 C
31 08-03-2014 02:30:00 4.4 C 90 % 2.91 C
32 08-03-2014 02:35:00 4.4 C 90 % 2.91 C
33 08-03-2014 02:40:00 4.4 C 90 % 2.91 C
34 08-03-2014 02:45:00 4.4 C 90 % 2.91 C
35 08-03-2014 02:50:00 4.4 C 90 % 2.91 C
36 08-03-2014 02:55:00 4.3 C 90 % 2.81 C
37 08-03-2014 03:00:00 4.2 C 90 % 2.71 C
38 08-03-2014 03:05:00 4.1 C 90 % 2.61 C
39 08-03-2014 03:10:00 4 C 90 % 2.51 C
40 08-03-2014 03:15:00 3.9 C 90 % 2.41 C
41 08-03-2014 03:20:00 3.7 C 90 % 2.22 C
42 08-03-2014 03:25:00 3.6 C 90 % 2.12 C
43 08-03-2014 03:30:00 3.4 C 91 % 2.07 C
44 08-03-2014 03:35:00 3.4 C 91 % 2.07 C
45 08-03-2014 03:40:00 3.4 C 91 % 2.07 C
46 08-03-2014 03:45:00 3.3 C 92 % 2.13 C
47 08-03-2014 03:50:00 3.3 C 92 % 2.13 C
48 08-03-2014 03:55:00 3.2 C 91 % 1.88 C
49 08-03-2014 04:00:00 3.2 C 92 % 2.03 C
50 08-03-2014 04:05:00 3.1 C 92 % 1.93 C
Sensor: Nr:Datum:Temp:Feuchte:Taupunkt:
Aussen-T/F 51 08-03-2014 04:10:00 3.1 C 92 % 1.93 C
52 08-03-2014 04:15:00 3.1 C 93 % 2.08 C
53 08-03-2014 04:20:00 3.2 C 93 % 2.18 C
54 08-03-2014 04:25:00 3.3 C 93 % 2.28 C
55 08-03-2014 04:30:00 3.2 C 92 % 2.03 C
56 08-03-2014 04:35:00 3 C 92 % 1.83 C
57 08-03-2014 04:40:00 2.8 C 92 % 1.63 C
58 08-03-2014 04:45:00 2.8 C 92 % 1.63 C
59 08-03-2014 04:50:00 2.7 C 93 % 1.68 C
60 08-03-2014 04:55:00 2.6 C 92 % 1.43 C
61 08-03-2014 05:00:00 2.4 C 93 % 1.39 C
62 08-03-2014 05:05:00 2.4 C 93 % 1.39 C
63 08-03-2014 05:10:00 2.3 C 93 % 1.29 C
64 08-03-2014 05:15:00 2.3 C 93 % 1.29 C
65 08-03-2014 05:20:00 2.3 C 94 % 1.44 C
66 08-03-2014 05:25:00 2.3 C 94 % 1.44 C
67 08-03-2014 05:30:00 2.3 C 94 % 1.44 C
68 08-03-2014 05:35:00 2.3 C 94 % 1.44 C
69 08-03-2014 05:40:00 2.3 C 94 % 1.44 C
70 08-03-2014 05:45:00 2.3 C 94 % 1.44 C
71 08-03-2014 05:50:00 2.2 C 94 % 1.34 C
72 08-03-2014 05:55:00 2.2 C 94 % 1.34 C
73 08-03-2014 06:00:00 2.2 C 94 % 1.34 C
74 08-03-2014 06:05:00 2.2 C 94 % 1.34 C
75 08-03-2014 06:10:00 2.1 C 94 % 1.24 C
Sensor: Nr:Datum:Temp:Feuchte:Taupunkt:
Aussen-T/F 76 08-03-2014 06:15:00 2.1 C 94 % 1.24 C
77 08-03-2014 06:20:00 2 C 94 % 1.14 C
78 08-03-2014 06:25:00 1.9 C 94 % 1.04 C
79 08-03-2014 06:30:00 1.9 C 94 % 1.04 C
80 08-03-2014 06:35:00 1.8 C 94 % 0.94 C
81 08-03-2014 06:40:00 1.8 C 94 % 0.94 C
82 08-03-2014 06:45:00 1.7 C 94 % 0.84 C
83 08-03-2014 06:50:00 1.7 C 95 % 0.99 C
84 08-03-2014 06:55:00 1.8 C 95 % 1.09 C
85 08-03-2014 07:00:00 1.8 C 95 % 1.09 C
86 08-03-2014 07:05:00 1.8 C 95 % 1.09 C
87 08-03-2014 07:10:00 1.8 C 95 % 1.09 C
88 08-03-2014 07:15:00 1.7 C 95 % 0.99 C
89 08-03-2014 07:20:00 1.8 C 95 % 1.09 C
90 08-03-2014 07:25:00 1.8 C 95 % 1.09 C
91 08-03-2014 07:30:00 1.7 C 95 % 0.99 C
92 08-03-2014 07:35:00 1.7 C 95 % 0.99 C
93 08-03-2014 07:40:00 1.6 C 95 % 0.89 C
94 08-03-2014 07:45:00 1.6 C 95 % 0.89 C
95 08-03-2014 07:50:00 1.6 C 95 % 0.89 C
96 08-03-2014 07:55:00 1.6 C 95 % 0.89 C
97 08-03-2014 08:00:00 1.6 C 95 % 0.89 C
98 08-03-2014 08:05:00 1.7 C 95 % 0.99 C
99 08-03-2014 08:10:00 1.7 C 95 % 0.99 C
100 08-03-2014 08:15:00 1.8 C 95 % 1.09 C
Sensor: Nr:Datum:Temp:Feuchte:Taupunkt:
Aussen-T/F 101 08-03-2014 08:20:00 1.8 C 95 % 1.09 C
102 08-03-2014 08:25:00 1.8 C 95 % 1.09 C
103 08-03-2014 08:30:00 1.9 C 95 % 1.19 C
104 08-03-2014 08:35:00 1.9 C 95 % 1.19 C
105 08-03-2014 08:40:00 2 C 95 % 1.29 C
106 08-03-2014 08:45:00 2.1 C 95 % 1.38 C
107 08-03-2014 08:50:00 2.2 C 96 % 1.63 C
108 08-03-2014 08:55:00 2.2 C 96 % 1.63 C
109 08-03-2014 09:00:00 2.5 C 96 % 1.93 C
110 08-03-2014 09:05:00 2.5 C 96 % 1.93 C
111 08-03-2014 09:10:00 2.5 C 96 % 1.93 C
112 08-03-2014 09:15:00 2.8 C 95 % 2.08 C
113 08-03-2014 09:20:00 2.8 C 95 % 2.08 C
114 08-03-2014 09:25:00 2.9 C 96 % 2.33 C
115 08-03-2014 09:30:00 3.1 C 95 % 2.38 C
116 08-03-2014 09:35:00 3.2 C 95 % 2.48 C
117 08-03-2014 09:40:00 3.4 C 96 % 2.82 C
118 08-03-2014 09:45:00 3.6 C 96 % 3.02 C
119 08-03-2014 09:50:00 3.8 C 96 % 3.22 C
120 08-03-2014 09:55:00 4 C 96 % 3.42 C
121 08-03-2014 10:00:00 4.3 C 95 % 3.57 C
122 08-03-2014 10:05:00 4.4 C 95 % 3.67 C
123 08-03-2014 10:10:00 4.4 C 95 % 3.67 C
124 08-03-2014 10:15:00 5.1 C 95 % 4.37 C
125 08-03-2014 10:20:00 5.3 C 95 % 4.57 C
Sensor: Nr:Datum:Temp:Feuchte:Taupunkt:
Aussen-T/F 126 08-03-2014 10:25:00 5.6 C 94 % 4.71 C
127 08-03-2014 10:30:00 5.7 C 93 % 4.66 C
128 08-03-2014 10:35:00 6.1 C 92 % 4.9 C
129 08-03-2014 10:40:00 6.3 C 92 % 5.1 C
130 08-03-2014 10:45:00 6.4 C 92 % 5.2 C
131 08-03-2014 10:50:00 6.4 C 92 % 5.2 C
132 08-03-2014 11:30:00 8.9 C 85 % 6.52 C
133 08-03-2014 11:35:00 9.2 C 85 % 6.81 C
134 08-03-2014 11:40:00 9.4 C 85 % 7.01 C
135 08-03-2014 11:45:00 9.7 C 84 % 7.13 C
136 08-03-2014 11:50:00 10 C 84 % 7.43 C
137 08-03-2014 11:55:00 10.8 C 78 % 7.12 C
138 08-03-2014 12:00:00 11.4 C 78 % 7.71 C
139 08-03-2014 12:05:00 11.9 C 73 % 7.22 C
140 08-03-2014 12:10:00 12.6 C 68 % 6.86 C
141 08-03-2014 12:15:00 13.1 C 67 % 7.12 C
142 08-03-2014 12:20:00 13.4 C 63 % 6.51 C
143 08-03-2014 12:25:00 13.7 C 66 % 7.47 C
144 08-03-2014 12:30:00 14.1 C 63 % 7.17 C
145 08-03-2014 12:35:00 14.4 C 61 % 6.98 C
146 08-03-2014 12:40:00 14.7 C 61 % 7.27 C
147 08-03-2014 12:45:00 14.9 C 60 % 7.21 C
148 08-03-2014 12:50:00 15.3 C 57 % 6.84 C
149 08-03-2014 12:55:00 15.4 C 59 % 7.44 C
150 08-03-2014 13:00:00 15.4 C 56 % 6.68 C
Sensor: Nr:Datum:Temp:Feuchte:Taupunkt:
Aussen-T/F 151 08-03-2014 13:05:00 15.5 C 55 % 6.51 C
152 08-03-2014 13:10:00 15.7 C 55 % 6.69 C
153 08-03-2014 13:15:00 15.8 C 55 % 6.79 C
154 08-03-2014 13:20:00 15.6 C 52 % 5.79 C
155 08-03-2014 13:25:00 15.4 C 52 % 5.61 C
156 08-03-2014 13:30:00 15.4 C 55 % 6.42 C
157 08-03-2014 13:35:00 15.4 C 52 % 5.61 C
158 08-03-2014 13:40:00 15.4 C 54 % 6.15 C
159 08-03-2014 13:45:00 15.3 C 53 % 5.79 C
160 08-03-2014 13:50:00 15.3 C 54 % 6.06 C
161 08-03-2014 13:55:00 15.3 C 53 % 5.79 C
162 08-03-2014 14:00:00 15.4 C 52 % 5.61 C
163 08-03-2014 14:05:00 15.5 C 54 % 6.24 C
164 08-03-2014 14:10:00 15.7 C 53 % 6.16 C
165 08-03-2014 14:15:00 15.8 C 51 % 5.69 C
166 08-03-2014 14:20:00 15.9 C 51 % 5.79 C
167 08-03-2014 14:25:00 15.9 C 50 % 5.5 C
168 08-03-2014 14:30:00 15.9 C 51 % 5.79 C
169 08-03-2014 14:35:00 15.9 C 49 % 5.21 C
170 08-03-2014 14:40:00 15.8 C 50 % 5.41 C
171 08-03-2014 14:45:00 15.9 C 52 % 6.07 C
172 08-03-2014 14:50:00 15.9 C 52 % 6.07 C
173 08-03-2014 14:55:00 16 C 52 % 6.16 C
174 08-03-2014 15:00:00 16.2 C 50 % 5.78 C
175 08-03-2014 15:05:00 16.1 C 52 % 6.25 C
Sensor: Nr:Datum:Temp:Feuchte:Taupunkt:
Aussen-T/F 176 08-03-2014 15:10:00 16.2 C 51 % 6.06 C
177 08-03-2014 15:15:00 16.2 C 50 % 5.78 C
178 08-03-2014 15:20:00 16.3 C 51 % 6.16 C
179 08-03-2014 15:25:00 16.2 C 49 % 5.49 C
180 08-03-2014 15:30:00 16.1 C 50 % 5.69 C
181 08-03-2014 15:35:00 16.2 C 49 % 5.49 C
182 08-03-2014 15:40:00 16.2 C 49 % 5.49 C
183 08-03-2014 15:45:00 16.2 C 50 % 5.78 C
184 08-03-2014 15:50:00 16.2 C 48 % 5.19 C
185 08-03-2014 15:55:00 16.1 C 50 % 5.69 C
186 08-03-2014 16:00:00 15.9 C 51 % 5.79 C
187 08-03-2014 16:05:00 15.8 C 50 % 5.41 C
188 08-03-2014 16:10:00 15.8 C 50 % 5.41 C
189 08-03-2014 16:15:00 15.7 C 50 % 5.32 C
190 08-03-2014 16:20:00 15.6 C 49 % 4.94 C
191 08-03-2014 16:25:00 15.5 C 50 % 5.13 C
192 08-03-2014 16:30:00 15.4 C 50 % 5.04 C
193 08-03-2014 16:35:00 15.4 C 50 % 5.04 C
194 08-03-2014 16:40:00 15.3 C 53 % 5.79 C
195 08-03-2014 16:45:00 15 C 51 % 4.96 C
196 08-03-2014 16:50:00 14.8 C 54 % 5.59 C
197 08-03-2014 16:55:00 14.7 C 52 % 4.96 C
198 08-03-2014 17:00:00 14.7 C 58 % 6.53 C
199 08-03-2014 17:05:00 14.6 C 52 % 4.87 C
200 08-03-2014 17:10:00 14.7 C 52 % 4.96 C
Sensor: Nr:Datum:Temp:Feuchte:Taupunkt:
Aussen-T/F 201 08-03-2014 17:15:00 14.7 C 56 % 6.02 C
202 08-03-2014 17:20:00 14.6 C 55 % 5.67 C
203 08-03-2014 17:25:00 14.3 C 57 % 5.91 C
204 08-03-2014 17:30:00 14.1 C 58 % 5.97 C
205 08-03-2014 17:35:00 13.9 C 55 % 5.02 C
206 08-03-2014 17:40:00 14 C 61 % 6.61 C
207 08-03-2014 17:45:00 13.5 C 62 % 6.37 C
208 08-03-2014 17:50:00 12.9 C 65 % 6.49 C
209 08-03-2014 17:55:00 12.3 C 66 % 6.14 C
210 08-03-2014 18:00:00 11.8 C 68 % 6.09 C
211 08-03-2014 18:05:00 11.3 C 69 % 5.83 C
212 08-03-2014 18:10:00 11.1 C 70 % 5.84 C
213 08-03-2014 18:15:00 10.8 C 71 % 5.76 C
214 08-03-2014 18:20:00 10.5 C 71 % 5.47 C
215 08-03-2014 18:25:00 10.3 C 72 % 5.48 C
216 08-03-2014 18:30:00 10 C 73 % 5.39 C
217 08-03-2014 18:35:00 9.8 C 73 % 5.2 C
218 08-03-2014 18:40:00 9.6 C 74 % 5.2 C
219 08-03-2014 18:45:00 9.4 C 75 % 5.2 C
220 08-03-2014 18:50:00 9.3 C 75 % 5.1 C
221 08-03-2014 18:55:00 9.2 C 75 % 5.01 C
222 08-03-2014 19:00:00 9.1 C 76 % 5.1 C
223 08-03-2014 19:05:00 9 C 76 % 5 C
224 08-03-2014 19:10:00 8.8 C 77 % 5 C
225 08-03-2014 19:15:00 8.8 C 78 % 5.18 C
Sensor: Nr:Datum:Temp:Feuchte:Taupunkt:
Aussen-T/F 226 08-03-2014 19:20:00 8.6 C 77 % 4.8 C
227 08-03-2014 19:25:00 8.6 C 77 % 4.8 C
228 08-03-2014 19:30:00 8.6 C 77 % 4.8 C
229 08-03-2014 19:35:00 8.6 C 78 % 4.99 C
230 08-03-2014 19:40:00 8.4 C 78 % 4.79 C
231 08-03-2014 19:45:00 8.3 C 79 % 4.88 C
232 08-03-2014 19:50:00 8.2 C 79 % 4.78 C
233 08-03-2014 19:55:00 8 C 80 % 4.77 C
234 08-03-2014 20:00:00 7.8 C 80 % 4.57 C
235 08-03-2014 20:05:00 7.7 C 81 % 4.65 C
236 08-03-2014 20:10:00 7.5 C 82 % 4.63 C
237 08-03-2014 20:15:00 7.3 C 82 % 4.44 C
238 08-03-2014 20:20:00 7.3 C 82 % 4.44 C
239 08-03-2014 20:25:00 7.2 C 84 % 4.68 C
240 08-03-2014 20:30:00 7.1 C 84 % 4.58 C
241 08-03-2014 20:35:00 6.9 C 84 % 4.39 C
242 08-03-2014 20:40:00 6.9 C 84 % 4.39 C
243 08-03-2014 20:45:00 6.9 C 84 % 4.39 C
244 08-03-2014 20:50:00 6.9 C 84 % 4.39 C
245 08-03-2014 20:55:00 6.7 C 84 % 4.19 C
246 08-03-2014 21:00:00 6.6 C 85 % 4.26 C
247 08-03-2014 21:05:00 6.4 C 85 % 4.07 C
248 08-03-2014 21:10:00 6.3 C 85 % 3.97 C
249 08-03-2014 21:15:00 6.3 C 86 % 4.14 C
250 08-03-2014 21:20:00 6.2 C 85 % 3.87 C
Sensor: Nr:Datum:Temp:Feuchte:Taupunkt:
Aussen-T/F 251 08-03-2014 21:25:00 6.2 C 86 % 4.04 C
252 08-03-2014 21:30:00 6.2 C 86 % 4.04 C
253 08-03-2014 21:35:00 6.1 C 85 % 3.77 C
254 08-03-2014 21:40:00 5.9 C 85 % 3.58 C
255 08-03-2014 21:45:00 5.8 C 85 % 3.48 C
256 08-03-2014 21:50:00 5.7 C 86 % 3.55 C
257 08-03-2014 21:55:00 5.6 C 86 % 3.45 C
258 08-03-2014 22:00:00 5.4 C 87 % 3.41 C
259 08-03-2014 22:05:00 5.4 C 87 % 3.41 C
260 08-03-2014 22:10:00 5.3 C 87 % 3.32 C
261 08-03-2014 22:15:00 5.3 C 87 % 3.32 C
262 08-03-2014 22:20:00 5.2 C 87 % 3.22 C
263 08-03-2014 22:25:00 5.2 C 88 % 3.38 C
264 08-03-2014 22:30:00 5.1 C 87 % 3.12 C
265 08-03-2014 22:35:00 5.1 C 87 % 3.12 C
266 08-03-2014 22:40:00 5.1 C 87 % 3.12 C
267 08-03-2014 22:45:00 4.8 C 87 % 2.82 C
268 08-03-2014 22:50:00 4.8 C 87 % 2.82 C
269 08-03-2014 22:55:00 4.7 C 87 % 2.73 C
270 08-03-2014 23:00:00 4.7 C 87 % 2.73 C
271 08-03-2014 23:05:00 4.6 C 88 % 2.79 C
272 08-03-2014 23:10:00 4.6 C 88 % 2.79 C
273 08-03-2014 23:15:00 4.4 C 88 % 2.59 C
274 08-03-2014 23:20:00 4.3 C 88 % 2.49 C
275 08-03-2014 23:25:00 4.1 C 88 % 2.3 C
Sensor: Nr:Datum:Temp:Feuchte:Taupunkt:
Aussen-T/F 276 08-03-2014 23:30:00 3.9 C 88 % 2.1 C
277 08-03-2014 23:35:00 3.8 C 89 % 2.16 C
278 08-03-2014 23:40:00 3.8 C 90 % 2.31 C
279 08-03-2014 23:45:00 3.8 C 90 % 2.31 C
280 08-03-2014 23:50:00 3.7 C 89 % 2.06 C
281 08-03-2014 23:55:00 3.6 C 89 % 1.96 C

Legende:
   Min
   Max


Maximal/Minimal-Werte vom 08.03.2014 - 08.03.2014

Sensor Min Max Avg
Temp
(Aussen-T/F)
1.6 °C
08-03-2014  07:40:00
16.3 °C
08-03-2014  15:20:00
7.38 °C
Feuchte
(Aussen-T/F)
48 %
08-03-2014  15:50:00
96 %
08-03-2014  08:50:00
80.04 %
Taupunkt
(Aussen-T/F)
0.84 C
08-03-2014  06:45:00
7.71 C
08-03-2014  12:00:00
3.74 C

Die Daten stammen von einer Davis Vantage Pro 2 Wetter-Station und werden unter Linux mit der Software wview2wettercgi und aufbereitet. Alle Angaben erfolgen ohne Gewähr für ihre Vollständigkeit oder Richtigkeit.
Kontakt: Rainer Krienke krienke@uni-koblenz.de . Meine Webseiten an der Uni Koblenz oder privat.
Version: $Revision: 0.78 $